createdAt,value
2019-01-04T00:01:52.285Z,8.03
2019-01-04T00:05:58.821Z,12.40
2019-01-04T00:10:06.574Z,12.17
2019-01-04T00:14:13.372Z,12.90
2019-01-04T00:18:20.808Z,6.80
2019-01-04T00:22:53.259Z,7.20
2019-01-04T00:27:01.164Z,8.73
2019-01-04T00:31:09.254Z,9.93
2019-01-04T00:35:20.058Z,8.03
2019-01-04T00:39:28.077Z,7.70
2019-01-04T00:43:46.378Z,7.47
2019-01-04T00:52:02.780Z,6.90
2019-01-04T00:56:19.259Z,11.10
2019-01-04T01:01:04.071Z,10.00
2019-01-04T01:05:48.726Z,7.20
2019-01-04T01:10:17.544Z,12.87
2019-01-04T01:14:36.647Z,6.90
2019-01-04T01:18:57.967Z,7.03
2019-01-04T01:23:17.053Z,11.07
2019-01-04T01:27:37.388Z,12.80
2019-01-04T01:32:21.944Z,10.30
2019-01-04T01:37:06.615Z,16.93
2019-01-04T01:41:37.541Z,12.30
2019-01-04T01:45:57.279Z,8.80
2019-01-04T01:50:16.077Z,9.77
2019-01-04T01:54:24.923Z,10.53
2019-01-04T01:58:31.245Z,8.83
2019-01-04T02:02:40.187Z,12.83
2019-01-04T02:06:46.632Z,12.77
2019-01-04T02:10:58.410Z,7.87
2019-01-04T02:15:06.048Z,5.97
2019-01-04T02:23:19.899Z,9.57
2019-01-04T02:27:26.874Z,18.40
2019-01-04T02:31:37.762Z,16.77
2019-01-04T02:35:45.141Z,4.80
2019-01-04T02:39:51.585Z,10.13
2019-01-04T02:44:01.453Z,9.37
2019-01-04T02:48:11.497Z,8.93
2019-01-04T02:52:18.654Z,8.97
2019-01-04T02:56:25.182Z,11.57
2019-01-04T03:00:31.942Z,12.13
2019-01-04T03:04:38.148Z,6.10
2019-01-04T03:08:45.243Z,5.60
2019-01-04T03:12:52.077Z,7.93
2019-01-04T03:17:02.659Z,8.83
2019-01-04T03:21:09.176Z,4.50
2019-01-04T03:25:16.527Z,2.07
2019-01-04T03:29:23.233Z,8.90
2019-01-04T03:33:31.423Z,5.00
2019-01-04T03:37:42.226Z,7.00
2019-01-04T03:41:51.713Z,11.17
2019-01-04T03:50:08.141Z,3.87
2019-01-04T03:54:15.830Z,7.13
2019-01-04T03:58:46.026Z,13.33
2019-01-04T04:02:53.979Z,2.07
2019-01-04T04:07:00.714Z,4.33
2019-01-04T04:11:07.263Z,6.23
2019-01-04T04:15:15.678Z,7.63
2019-01-04T04:19:22.318Z,9.90
2019-01-04T04:23:30.352Z,8.20
2019-01-04T04:27:38.379Z,9.40
2019-01-04T04:31:45.173Z,6.97
2019-01-04T04:35:52.937Z,11.83
2019-01-04T04:39:59.621Z,10.07
2019-01-04T04:44:06.242Z,17.20
2019-01-04T04:48:34.570Z,9.43
2019-01-04T04:52:43.803Z,15.20
2019-01-04T04:56:50.928Z,21.93
2019-01-04T05:00:58.105Z,11.53
2019-01-04T05:05:07.218Z,21.50
2019-01-04T05:09:18.220Z,27.30
2019-01-04T05:13:25.019Z,22.97
2019-01-04T05:17:33.631Z,19.83
2019-01-04T05:21:41.800Z,17.20
2019-01-04T05:25:50.416Z,17.87
2019-01-04T05:29:56.952Z,16.00
2019-01-04T05:34:03.778Z,16.37
2019-01-04T05:38:11.664Z,17.77
2019-01-04T05:42:17.981Z,13.37
2019-01-04T05:50:36.908Z,19.23
2019-01-04T05:54:45.947Z,17.97
2019-01-04T05:59:13.952Z,17.83
2019-01-04T06:03:21.417Z,11.27
2019-01-04T06:07:27.736Z,16.60
2019-01-04T06:11:36.660Z,26.30
2019-01-04T06:15:45.691Z,11.73
2019-01-04T06:19:53.887Z,17.90
2019-01-04T06:24:03.851Z,17.60
2019-01-04T06:28:11.378Z,23.23
2019-01-04T06:32:45.629Z,17.87
2019-01-04T06:36:54.776Z,18.43
2019-01-04T06:41:04.948Z,23.50
2019-01-04T06:45:11.725Z,24.67
2019-01-04T06:49:18.526Z,25.23
2019-01-04T06:53:25.180Z,20.83
2019-01-04T06:57:31.785Z,25.70
2019-01-04T07:01:39.317Z,28.83
2019-01-04T07:05:48.558Z,22.03
2019-01-04T07:09:58.652Z,23.03
2019-01-04T07:14:05.181Z,21.53
2019-01-04T07:18:20.183Z,30.70
2019-01-04T07:22:27.821Z,24.63
2019-01-04T07:26:40.555Z,25.03
2019-01-04T07:30:47.983Z,27.67
2019-01-04T07:34:58.453Z,21.77
2019-01-04T07:39:06.926Z,31.77
2019-01-04T07:43:16.531Z,21.73
2019-01-04T07:47:24.724Z,24.77
2019-01-04T07:51:34.210Z,31.13
2019-01-04T07:55:43.300Z,24.57
2019-01-04T08:04:00.581Z,16.07
2019-01-04T08:08:08.739Z,25.83
2019-01-04T08:12:18.611Z,29.50
2019-01-04T08:16:26.419Z,26.97
2019-01-04T08:20:34.775Z,34.27
2019-01-04T08:24:43.300Z,46.25
2019-01-04T08:28:50.817Z,28.13
2019-01-04T08:32:59.299Z,38.37
2019-01-04T08:37:05.923Z,27.97
2019-01-04T08:41:17.888Z,36.23
2019-01-04T08:45:25.386Z,41.13
2019-01-04T08:49:36.237Z,38.50
2019-01-04T08:54:03.990Z,38.37
2019-01-04T08:58:19.858Z,33.73
2019-01-04T09:02:27.600Z,46.57
2019-01-04T09:06:37.760Z,36.30
2019-01-04T09:10:45.026Z,35.93
2019-01-04T09:14:52.266Z,25.77
2019-01-04T09:19:42.846Z,34.43
2019-01-04T09:23:49.504Z,44.63
2019-01-04T09:28:00.497Z,30.40
2019-01-04T09:32:08.232Z,39.23
2019-01-04T09:36:18.058Z,46.10
2019-01-04T09:40:25.957Z,39.40
2019-01-04T09:44:34.868Z,50.37
2019-01-04T09:48:44.816Z,37.77
2019-01-04T09:52:52.411Z,37.20
2019-01-04T09:57:01.279Z,41.83
2019-01-04T10:01:08.843Z,44.47
2019-01-04T10:05:16.846Z,40.83
2019-01-04T10:09:25.097Z,42.13
2019-01-04T10:13:56.554Z,42.37
2019-01-04T10:18:03.106Z,40.37
2019-01-04T10:22:15.044Z,48.10
2019-01-04T10:26:26.049Z,49.63
2019-01-04T10:34:40.270Z,35.70
2019-01-04T10:38:47.329Z,41.23
2019-01-04T10:43:16.294Z,29.00
2019-01-04T10:47:23.290Z,31.40
2019-01-04T10:51:34.450Z,28.17
2019-01-04T10:55:42.730Z,25.73
2019-01-04T10:59:51.554Z,32.43
2019-01-04T11:04:18.213Z,29.17
2019-01-04T11:08:28.098Z,29.57
2019-01-04T11:12:37.707Z,37.77
2019-01-04T11:16:47.217Z,26.90
2019-01-04T11:20:56.565Z,30.70
2019-01-04T11:25:17.209Z,20.90
2019-01-04T11:29:39.127Z,32.87
2019-01-04T11:33:57.076Z,33.27
2019-01-04T11:38:27.759Z,27.17
2019-01-04T11:43:17.476Z,32.83
2019-01-04T11:48:18.628Z,36.63
2019-01-04T11:52:36.626Z,36.70
2019-01-04T11:56:43.700Z,30.30
2019-01-04T12:00:50.912Z,38.87
2019-01-04T12:05:19.920Z,27.63
2019-01-04T12:09:26.712Z,37.97
2019-01-04T12:13:40.922Z,34.47
2019-01-04T12:17:51.882Z,37.67
2019-01-04T12:21:59.371Z,38.90
2019-01-04T12:26:08.028Z,29.13
2019-01-04T12:30:19.166Z,41.90
2019-01-04T12:34:26.123Z,32.27
2019-01-04T12:38:37.824Z,27.43
2019-01-04T12:42:44.577Z,29.23
2019-01-04T12:46:51.928Z,33.67
2019-01-04T12:51:04.554Z,29.20
2019-01-04T12:55:11.515Z,34.83
2019-01-04T13:03:36.339Z,26.77
2019-01-04T13:08:06.753Z,25.07
2019-01-04T13:12:13.964Z,25.60
2019-01-04T13:16:25.900Z,31.27
2019-01-04T13:20:35.883Z,29.27
2019-01-04T13:24:43.934Z,28.70
2019-01-04T13:28:50.616Z,22.60
2019-01-04T13:33:09.318Z,29.63
2019-01-04T13:37:20.609Z,28.60
2019-01-04T13:41:37.323Z,31.80
2019-01-04T13:45:45.511Z,26.33
2019-01-04T13:49:54.966Z,30.37
2019-01-04T13:54:06.374Z,31.93
2019-01-04T13:58:12.880Z,30.53
2019-01-04T14:02:19.686Z,33.10
2019-01-04T14:06:28.700Z,36.33
2019-01-04T14:10:35.678Z,32.47
2019-01-04T14:14:42.343Z,33.37
2019-01-04T14:18:55.820Z,36.47
2019-01-04T14:23:28.760Z,34.50
2019-01-04T14:27:37.126Z,38.67
2019-01-04T14:31:49.122Z,31.13
2019-01-04T14:36:00.530Z,29.07
2019-01-04T14:40:09.683Z,34.60
2019-01-04T14:44:17.701Z,35.50
2019-01-04T14:48:27.198Z,34.10
2019-01-04T14:52:34.265Z,37.43
2019-01-04T14:56:42.355Z,39.17
2019-01-04T15:00:51.792Z,42.57
2019-01-04T15:05:00.901Z,37.33
2019-01-04T15:09:30.655Z,39.80
2019-01-04T15:13:39.492Z,39.67
2019-01-04T15:17:49.548Z,44.30
2019-01-04T15:22:00.207Z,40.27
2019-01-04T15:26:11.082Z,49.30
2019-01-04T15:30:17.664Z,46.27
2019-01-04T15:34:27.154Z,48.07
2019-01-04T15:38:36.356Z,46.10
2019-01-04T15:42:44.207Z,43.57
2019-01-04T15:46:56.835Z,52.57
2019-01-04T15:51:03.802Z,46.83
2019-01-04T15:55:12.085Z,49.93
2019-01-04T15:59:30.233Z,60.83
2019-01-04T16:03:36.427Z,53.87
2019-01-04T16:07:44.745Z,57.07
2019-01-04T16:11:52.325Z,61.20
2019-01-04T16:16:00.406Z,62.97
2019-01-04T16:20:10.376Z,52.03
2019-01-04T16:24:20.552Z,53.37
2019-01-04T16:28:31.353Z,60.73
2019-01-04T16:32:39.446Z,56.70
2019-01-04T16:36:46.025Z,65.63
2019-01-04T16:40:55.088Z,66.27
2019-01-04T16:45:04.087Z,67.77
2019-01-04T16:49:13.715Z,69.33
2019-01-04T16:53:21.536Z,70.63
2019-01-04T16:57:29.425Z,55.43
2019-01-04T17:01:35.586Z,65.63
2019-01-04T17:05:42.275Z,62.73
2019-01-04T17:09:53.582Z,64.80
2019-01-04T17:14:01.200Z,62.27
2019-01-04T17:18:12.950Z,66.63
2019-01-04T17:22:17.867Z,61.43
2019-01-04T17:26:25.810Z,57.47
2019-01-04T17:30:35.051Z,64.17
2019-01-04T17:34:41.511Z,68.03
2019-01-04T17:38:50.750Z,55.97
2019-01-04T17:42:59.248Z,56.87
2019-01-04T17:47:32.415Z,58.10
2019-01-04T17:51:40.626Z,65.70
2019-01-04T17:55:50.175Z,58.33
2019-01-04T17:59:56.459Z,52.40
2019-01-04T18:04:04.933Z,58.23
2019-01-04T18:08:11.677Z,55.17
2019-01-04T18:12:20.302Z,56.90
2019-01-04T18:16:29.005Z,50.67
2019-01-04T18:24:50.882Z,54.93
2019-01-04T18:29:01.380Z,59.90
2019-01-04T18:33:08.867Z,56.20
2019-01-04T18:37:17.714Z,56.93
2019-01-04T18:41:28.204Z,59.33
2019-01-04T18:45:35.421Z,65.20
2019-01-04T18:49:43.518Z,50.37
2019-01-04T18:58:41.715Z,57.87
2019-01-04T19:02:53.516Z,62.70
2019-01-04T19:07:02.095Z,57.57
2019-01-04T19:11:12.719Z,57.70
2019-01-04T19:15:20.178Z,61.27
2019-01-04T19:19:29.059Z,72.47
2019-01-04T19:23:39.660Z,59.33
2019-01-04T19:37:56.555Z,57.57
2019-01-04T19:42:05.341Z,65.60
2019-01-04T19:50:24.320Z,69.10
2019-01-04T19:54:35.406Z,71.30
2019-01-04T19:58:46.132Z,76.83
2019-01-04T20:02:56.445Z,73.03
2019-01-04T20:07:42.017Z,82.20
2019-01-04T20:12:21.209Z,64.80
2019-01-04T20:16:54.246Z,76.07
2019-01-04T20:21:24.120Z,70.37
2019-01-04T20:25:51.039Z,72.43
2019-01-04T20:30:21.309Z,71.50
2019-01-04T20:34:46.722Z,77.03
2019-01-04T20:39:14.675Z,76.27
2019-01-04T20:43:25.276Z,77.93
2019-01-04T20:47:45.508Z,71.07
2019-01-04T20:52:12.291Z,78.77
2019-01-04T20:56:32.649Z,93.23
2019-01-04T21:00:58.149Z,73.53
2019-01-04T21:05:11.597Z,73.63
2019-01-04T21:09:38.633Z,86.00
2019-01-04T21:14:04.036Z,82.33
2019-01-04T21:18:30.756Z,83.50
2019-01-04T21:22:51.551Z,77.10
2019-01-04T21:27:12.404Z,67.13
2019-01-04T21:31:38.642Z,75.73
2019-01-04T21:35:52.370Z,78.83
2019-01-04T21:40:11.076Z,83.47
2019-01-04T21:44:30.734Z,82.87
2019-01-04T21:48:52.128Z,57.37
2019-01-04T21:53:12.027Z,90.07
2019-01-04T21:57:31.553Z,87.23
2019-01-04T22:01:56.995Z,72.23
2019-01-04T22:06:12.698Z,78.43
2019-01-04T22:10:30.002Z,84.13
2019-01-04T22:14:50.535Z,93.23
2019-01-04T22:19:16.137Z,90.17
2019-01-04T22:23:30.740Z,90.73
2019-01-04T22:27:57.005Z,81.43
2019-01-04T22:32:12.506Z,95.07
2019-01-04T22:36:30.380Z,98.20
2019-01-04T22:40:55.654Z,98.43
2019-01-04T22:45:21.058Z,66.63
2019-01-04T22:49:46.987Z,97.13
2019-01-04T22:54:11.999Z,85.17
2019-01-04T22:58:31.337Z,85.57
2019-01-04T23:02:59.976Z,114.07
2019-01-04T23:07:11.090Z,83.57
2019-01-04T23:11:36.633Z,72.20
2019-01-04T23:15:50.564Z,83.60
2019-01-04T23:20:10.322Z,84.97
2019-01-04T23:24:36.191Z,91.83
2019-01-04T23:29:01.511Z,79.53
2019-01-04T23:37:54.127Z,79.73
2019-01-04T23:42:11.035Z,69.33
2019-01-04T23:46:30.678Z,72.20
2019-01-04T23:50:57.396Z,57.83
2019-01-04T23:55:12.133Z,56.43
2019-01-04T23:59:39.066Z,59.43
